Time;durP1;ratioP1;P1;durP2;ratioP2;P2;SDS_P1;SDS_P2;PMS_P1;PMS_P2;Temp;Humidity;BMP_temperature;BMP_pressure;BME280_temperature;BME280_humidity;BME280_pressure;Samples;Min_cycle;Max_cycle;Signal;HPM_P1;HPM_P2
2023/01/10 00:00:35;;;;;;;;;;;;;;;;;;;;;
2023/01/10 00:03:39;;;;;;;12.50;5.10;;;;;;;;;;110671;1256;22135;-79
2023/01/10 00:06:23;;;;;;;11.50;4.70;;;;;;;;;;110679;1273;22005;-78
2023/01/10 00:09:22;;;;;;;11.70;5.10;;;;;;;;;;110665;1274;22132;-78
2023/01/10 00:14:53;;;;;;;13.10;5.20;;;;;;;;;;110644;1273;22170;-79
2023/01/10 00:22:37;;;;;;;;;;;;;;;;;;;;;
2023/01/10 00:25:34;;;;;;;;;;;;;;;;;;;;;
2023/01/10 00:32:09;;;;;;;14.10;6.20;;;;;;;;;;109918;1262;22216;-78
2023/01/10 00:34:38;;;;;;;14.80;6.00;;;;;;;;;;109904;1285;22856;-78
2023/01/10 00:37:07;;;;;;;14.30;5.10;;;;;;;;;;109962;1284;22176;-78
2023/01/10 00:39:34;;;;;;;13.80;5.90;;;;;;;;;;109937;1284;22031;-78
2023/01/10 00:44:50;;;;;;;11.70;4.80;;;;;;;;;;109940;1265;22160;-78
2023/01/10 00:47:17;;;;;;;10.90;4.20;;;;;;;;;;109940;1281;22155;-78
2023/01/10 00:49:46;;;;;;;13.20;5.00;;;;;;;;;;109942;1284;23086;-78
2023/01/10 00:52:13;;;;;;;12.50;4.70;;;;;;;;;;109940;1284;22190;-78
2023/01/10 00:54:43;;;;;;;10.30;4.40;;;;;;;;;;110030;1265;22826;-78
2023/01/10 00:57:12;;;;;;;11.30;4.00;;;;;;;;;;110080;1280;22869;-78
2023/01/10 00:59:39;;;;;;;9.00;3.20;;;;;;;;;;110237;1279;22924;-78
2023/01/10 01:02:06;;;;;;;10.60;3.30;;;;;;;;;;110112;1280;22133;-78
2023/01/10 01:04:38;;;;;;;11.30;3.20;;;;;;;;;;110232;1262;22876;-78
2023/01/10 01:07:07;;;;;;;9.80;3.20;;;;;;;;;;110626;1275;22094;-78
2023/01/10 01:10:25;;;;;;;9.40;2.60;;;;;;;;;;110567;1275;22131;-78
2023/01/10 01:12:26;;;;;;;9.90;3.20;;;;;;;;;;110600;1275;22069;-78
2023/01/10 01:14:53;;;;;;;9.00;2.90;;;;;;;;;;110512;1258;22889;-78
2023/01/10 01:21:27;;;;;;;6.30;2.00;;;;;;;;;;110541;1276;22143;-78
2023/01/10 01:23:57;;;;;;;6.70;2.20;;;;;;;;;;110679;1257;22221;-79
2023/01/10 01:26:26;;;;;;;6.90;2.10;;;;;;;;;;110317;1276;22195;-78
2023/01/10 01:28:59;;;;;;;8.70;2.20;;;;;;;;;;110347;1275;22157;-78
2023/01/10 01:31:35;;;;;;;8.30;2.30;;;;;;;;;;110588;1276;22013;-78
2023/01/10 01:34:02;;;;;;;6.90;1.90;;;;;;;;;;110394;1262;21874;-80
2023/01/10 01:36:28;;;;;;;8.70;2.10;;;;;;;;;;110384;1276;22145;-81
2023/01/10 01:38:59;;;;;;;6.70;2.00;;;;;;;;;;110536;1276;22131;-79
2023/01/10 01:44:24;;;;;;;7.40;1.70;;;;;;;;;;110575;1256;22162;-77
2023/01/10 01:47:07;;;;;;;7.50;2.20;;;;;;;;;;110577;1276;22160;-79
2023/01/10 01:49:42;;;;;;;6.20;1.80;;;;;;;;;;110416;1276;22322;-78
2023/01/10 01:52:20;;;;;;;7.20;1.90;;;;;;;;;;110323;1276;22797;-78
2023/01/10 01:54:47;;;;;;;8.90;2.20;;;;;;;;;;110513;1259;22216;-78
2023/01/10 01:57:28;;;;;;;4.30;1.20;;;;;;;;;;110371;1276;21959;-76
2023/01/10 02:00:13;;;;;;;;;;;;;;;;;;;;;
2023/01/10 02:02:58;;;;;;;7.00;1.40;;;;;;;;;;110427;1276;22112;-78
2023/01/10 02:05:32;;;;;;;6.50;1.50;;;;;;;;;;110475;1260;22928;-79
2023/01/10 02:08:01;;;;;;;7.40;1.50;;;;;;;;;;110447;1276;22123;-78
2023/01/10 02:10:40;;;;;;;5.10;1.60;;;;;;;;;;110458;1276;22115;-79
2023/01/10 02:13:18;;;;;;;5.20;1.40;;;;;;;;;;110560;1276;22084;-78
2023/01/10 02:15:54;;;;;;;3.90;1.00;;;;;;;;;;110613;1258;22151;-79
2023/01/10 02:18:23;;;;;;;4.90;1.00;;;;;;;;;;110332;1276;22112;-76
2023/01/10 02:21:26;;;;;;;;;;;;;;;;;;;;;
2023/01/10 02:24:14;;;;;;;5.90;1.70;;;;;;;;;;110586;1275;22146;-78
2023/01/10 02:26:56;;;;;;;6.30;1.50;;;;;;;;;;110566;1259;22149;-78
2023/01/10 02:29:29;;;;;;;4.90;1.60;;;;;;;;;;110262;1278;22110;-79
2023/01/10 02:32:02;;;;;;;5.60;1.50;;;;;;;;;;110316;1278;22799;-78
2023/01/10 02:34:38;;;;;;;4.90;1.30;;;;;;;;;;110309;1278;22204;-79
2023/01/10 02:37:13;;;;;;;6.00;1.50;;;;;;;;;;110687;1259;22573;-78
2023/01/10 02:39:57;;;;;;;4.90;1.20;;;;;;;;;;110451;1276;22125;-78
2023/01/10 02:42:32;;;;;;;6.00;1.80;;;;;;;;;;110348;1275;22164;-77
2023/01/10 02:45:03;;;;;;;5.20;1.50;;;;;;;;;;110454;1253;22929;-78
2023/01/10 02:47:36;;;;;;;4.50;1.50;;;;;;;;;;110310;1276;22197;-77
2023/01/10 02:50:21;;;;;;;8.30;1.80;;;;;;;;;;110371;1276;21988;-78
2023/01/10 02:52:48;;;;;;;5.40;1.30;;;;;;;;;;110585;1276;22310;-77
2023/01/10 02:55:21;;;;;;;5.90;1.70;;;;;;;;;;110381;1253;22418;-79
2023/01/10 02:58:06;;;;;;;6.30;1.90;;;;;;;;;;110484;1276;22081;-77
2023/01/10 03:00:36;;;;;;;4.80;1.50;;;;;;;;;;110558;1276;22436;-77
2023/01/10 03:03:19;;;;;;;6.00;2.00;;;;;;;;;;110308;1276;22848;-78
2023/01/10 03:06:25;;;;;;;6.20;1.90;;;;;;;;;;110426;1259;22166;-79
2023/01/10 03:09:06;;;;;;;6.20;1.80;;;;;;;;;;110238;1277;22758;-78
2023/01/10 03:15:22;;;;;;;5.80;1.70;;;;;;;;;;110029;1283;22175;-79
2023/01/10 03:25:15;;;;;;;5.10;1.60;;;;;;;;;;109805;1287;22172;-77
2023/01/10 03:27:54;;;;;;;;;;;;;;;;;;;;;
2023/01/10 03:30:29;;;;;;;7.20;1.90;;;;;;;;;;109823;1287;22381;-77
2023/01/10 03:36:56;;;;;;;6.70;2.00;;;;;;;;;;109312;1274;22202;-77
2023/01/10 03:39:52;;;;;;;7.80;1.90;;;;;;;;;;109248;1293;22157;-77
2023/01/10 03:42:27;;;;;;;9.10;2.10;;;;;;;;;;109225;1290;23288;-77
2023/01/10 03:45:02;;;;;;;5.70;1.60;;;;;;;;;;109259;1283;22039;-77
2023/01/10 03:47:45;;;;;;;;;;;;;;;;;;;;;
2023/01/10 03:58:04;;;;;;;9.80;2.20;;;;;;;;;;108698;1282;22199;-80
2023/01/10 04:00:34;;;;;;;6.80;1.70;;;;;;;;;;108974;1296;22969;-78
2023/01/10 04:03:03;;;;;;;10.20;1.80;;;;;;;;;;108905;1296;22209;-78
2023/01/10 04:05:50;;;;;;;8.40;1.90;;;;;;;;;;108958;1296;22830;-78
2023/01/10 04:08:38;;;;;;;4.60;1.10;;;;;;;;;;108981;1288;22225;-77
2023/01/10 04:11:15;;;;;;;7.30;1.40;;;;;;;;;;109031;1296;22184;-78
2023/01/10 04:13:42;;;;;;;4.10;1.40;;;;;;;;;;109363;1291;22102;-78
2023/01/10 04:16:33;;;;;;;4.90;1.60;;;;;;;;;;109535;1291;22227;-78
2023/01/10 04:27:19;;;;;;;;;;;;;;;;;;;;;
2023/01/10 04:29:46;;;;;;;7.80;2.00;;;;;;;;;;110584;1260;22098;-78
2023/01/10 04:32:15;;;;;;;6.60;2.10;;;;;;;;;;110278;1278;22120;-79
2023/01/10 04:34:45;;;;;;;6.40;2.00;;;;;;;;;;108964;1278;22999;-78
2023/01/10 04:37:35;;;;;;;6.90;1.70;;;;;;;;;;110303;1276;22112;-79
2023/01/10 04:40:18;;;;;;;6.60;1.60;;;;;;;;;;110344;1262;22227;-78
2023/01/10 04:45:45;;;;;;;5.90;1.90;;;;;;;;;;110171;1278;22184;-79
2023/01/10 04:48:57;;;;;;;;;;;;;;;;;;;;;
2023/01/10 04:55:55;;;;;;;9.60;2.10;;;;;;;;;;109949;1284;22299;-78
2023/01/10 04:58:26;;;;;;;6.30;1.80;;;;;;;;;;109892;1264;22945;-78
2023/01/10 05:00:56;;;;;;;6.80;1.90;;;;;;;;;;109892;1284;22135;-77
2023/01/10 05:03:36;;;;;;;;;;;;;;;;;;;;;
2023/01/10 05:06:03;;;;;;;5.70;2.00;;;;;;;;;;109883;1285;22177;-77
2023/01/10 05:08:31;;;;;;;5.70;1.60;;;;;;;;;;109862;1262;22172;-78
2023/01/10 05:11:16;;;;;;;4.70;1.60;;;;;;;;;;109885;1285;22954;-79
2023/01/10 05:13:43;;;;;;;5.60;1.70;;;;;;;;;;109891;1285;22168;-78
2023/01/10 05:16:11;;;;;;;6.80;1.60;;;;;;;;;;109796;1285;22614;-78
2023/01/10 05:18:39;;;;;;;9.50;1.90;;;;;;;;;;109804;1285;23297;-79
2023/01/10 05:21:12;;;;;;;5.50;2.20;;;;;;;;;;109810;1270;22148;-79
2023/01/10 05:23:50;;;;;;;;;;;;;;;;;;;;;
2023/01/10 05:26:19;;;;;;;5.70;1.80;;;;;;;;;;109883;1285;22184;-78
2023/01/10 05:29:00;;;;;;;9.00;2.40;;;;;;;;;;109918;1280;23027;-80
2023/01/10 05:31:35;;;;;;;6.30;2.20;;;;;;;;;;110097;1279;22142;-78
2023/01/10 05:34:06;;;;;;;9.50;2.60;;;;;;;;;;110151;1278;22103;-78
2023/01/10 05:36:34;;;;;;;7.20;2.40;;;;;;;;;;110117;1279;22191;-78
2023/01/10 05:39:05;;;;;;;8.00;2.40;;;;;;;;;;110138;1279;22133;-79
2023/01/10 05:41:33;;;;;;;8.00;2.10;;;;;;;;;;110491;1260;21773;-78
2023/01/10 05:44:11;;;;;;;7.40;2.30;;;;;;;;;;110190;1279;22139;-78
2023/01/10 05:46:39;;;;;;;7.50;2.60;;;;;;;;;;110140;1279;22132;-78
2023/01/10 05:49:13;;;;;;;12.90;3.40;;;;;;;;;;110118;1279;22934;-78
2023/01/10 05:51:48;;;;;;;9.60;3.50;;;;;;;;;;110572;1257;22124;-78
2023/01/10 05:54:23;;;;;;;9.20;3.40;;;;;;;;;;110136;1279;22125;-77
2023/01/10 05:57:06;;;;;;;11.90;3.20;;;;;;;;;;110127;1279;22115;-78
2023/01/10 05:59:37;;;;;;;12.70;3.20;;;;;;;;;;110102;1279;22403;-78
2023/01/10 06:02:05;;;;;;;11.30;3.40;;;;;;;;;;110202;1260;21994;-77
2023/01/10 06:04:33;;;;;;;11.30;3.90;;;;;;;;;;110289;1279;22110;-78
2023/01/10 06:07:01;;;;;;;10.60;3.40;;;;;;;;;;110264;1279;22143;-79
2023/01/10 06:09:31;;;;;;;12.50;3.40;;;;;;;;;;110148;1280;22271;-78
2023/01/10 06:12:00;;;;;;;10.30;3.00;;;;;;;;;;110247;1260;23101;-78
2023/01/10 06:14:30;;;;;;;11.90;2.90;;;;;;;;;;110146;1280;22127;-78
2023/01/10 06:17:08;;;;;;;12.00;4.00;;;;;;;;;;110225;1280;22200;-78
2023/01/10 06:20:29;;;;;;;10.20;3.40;;;;;;;;;;109768;1263;22209;-78
2023/01/10 06:23:01;;;;;;;12.30;3.50;;;;;;;;;;109641;1287;22184;-80
2023/01/10 06:25:29;;;;;;;10.20;3.30;;;;;;;;;;109752;1287;22381;-77
2023/01/10 06:28:07;;;;;;;11.80;3.50;;;;;;;;;;109625;1287;22152;-78
2023/01/10 06:30:36;;;;;;;11.40;3.40;;;;;;;;;;109756;1263;22905;-77
2023/01/10 06:33:11;;;;;;;13.90;7.20;;;;;;;;;;109746;1287;22956;-77
2023/01/10 06:35:40;;;;;;;13.20;6.00;;;;;;;;;;109795;1286;22233;-75
2023/01/10 06:38:10;;;;;;;11.40;5.40;;;;;;;;;;109832;1286;22195;-76
2023/01/10 06:40:37;;;;;;;11.20;4.50;;;;;;;;;;109753;1263;22194;-75
2023/01/10 06:43:14;;;;;;;8.90;3.30;;;;;;;;;;109766;1286;22377;-76
2023/01/10 06:45:43;;;;;;;9.30;2.90;;;;;;;;;;109758;1286;22898;-77
2023/01/10 06:48:12;;;;;;;10.20;4.30;;;;;;;;;;109824;1286;22228;-76
2023/01/10 06:50:42;;;;;;;13.80;7.10;;;;;;;;;;109721;1263;22373;-78
2023/01/10 06:53:10;;;;;;;11.90;5.80;;;;;;;;;;109770;1286;22033;-76
2023/01/10 06:55:39;;;;;;;10.00;3.40;;;;;;;;;;109815;1286;22003;-76
2023/01/10 06:58:08;;;;;;;7.10;2.80;;;;;;;;;;110179;1280;22602;-77
2023/01/10 07:00:59;;;;;;;;;;;;;;;;;;;;;
2023/01/10 07:04:17;;;;;;;11.20;2.60;;;;;;;;;;110578;1258;22768;-76
2023/01/10 07:13:47;;;;;;;10.30;3.00;;;;;;;;;;103966;1292;545433;-76
2023/01/10 07:16:48;;;;;;;8.60;3.00;;;;;;;;;;106419;1285;24221;-77
2023/01/10 07:19:16;;;;;;;7.40;2.60;;;;;;;;;;106396;1285;22647;-77
2023/01/10 07:22:58;;;;;;;8.20;3.00;;;;;;;;;;106340;1285;22539;-78
2023/01/10 07:25:30;;;;;;;9.80;3.60;;;;;;;;;;107130;1261;24244;-82
2023/01/10 07:28:25;;;;;;;7.50;3.20;;;;;;;;;;105668;1272;2012551;-79
2023/01/10 07:31:29;;;;;;;;;;;;;;;;;;;;;
2023/01/10 07:34:01;;;;;;;7.70;3.20;;;;;;;;;;107313;1263;22522;-80
2023/01/10 07:36:38;;;;;;;8.80;3.40;;;;;;;;;;107238;1272;22545;-79
2023/01/10 07:39:05;;;;;;;10.00;3.50;;;;;;;;;;107290;1271;25446;-78
2023/01/10 07:41:44;;;;;;;9.50;3.90;;;;;;;;;;107376;1272;24451;-81
2023/01/10 07:44:35;;;;;;;11.10;3.30;;;;;;;;;;107310;1254;22627;-79
2023/01/10 07:47:05;;;;;;;7.70;2.90;;;;;;;;;;107173;1272;23304;-75
2023/01/10 07:49:52;;;;;;;9.10;4.00;;;;;;;;;;107156;1272;25353;-79
2023/01/10 07:52:37;;;;;;;11.30;5.20;;;;;;;;;;107240;1272;25350;-77
2023/01/10 07:55:20;;;;;;;;;;;;;;;;;;;;;
2023/01/10 07:58:51;;;;;;;12.50;4.90;;;;;;;;;;107435;1271;25343;-81
2023/01/10 08:01:28;;;;;;;;;;;;;;;;;;;;;
2023/01/10 08:04:34;;;;;;;11.60;3.80;;;;;;;;;;107246;1251;24349;-80
2023/01/10 08:07:58;;;;;;;9.40;3.50;;;;;;;;;;107186;1272;24163;-79
2023/01/10 08:10:30;;;;;;;11.50;3.80;;;;;;;;;;107199;1274;24326;-81
2023/01/10 08:13:26;;;;;;;13.00;4.20;;;;;;;;;;107100;1274;22526;-84
2023/01/10 08:16:21;;;;;;;15.70;4.20;;;;;;;;;;107168;1258;22487;-79
2023/01/10 08:18:48;;;;;;;11.80;3.60;;;;;;;;;;107189;1273;25407;-81
2023/01/10 08:21:21;;;;;;;9.80;3.90;;;;;;;;;;107217;1273;22983;-79
2023/01/10 08:24:08;;;;;;;9.90;3.50;;;;;;;;;;107197;1273;22619;-81
2023/01/10 08:26:44;;;;;;;10.90;4.10;;;;;;;;;;107139;1256;22550;-76
2023/01/10 08:30:17;;;;;;;10.40;4.10;;;;;;;;;;107194;1274;22616;-77
2023/01/10 08:32:34;;;;;;;11.10;4.00;;;;;;;;;;106222;1283;22537;-77
2023/01/10 08:35:18;;;;;;;;;;;;;;;;;;;;;
2023/01/10 08:38:08;;;;;;;24.90;8.20;;;;;;;;;;106443;1282;24229;-81
2023/01/10 08:40:54;;;;;;;16.20;6.30;;;;;;;;;;106430;1282;22545;-77
2023/01/10 08:43:49;;;;;;;27.80;10.90;;;;;;;;;;106461;1282;22584;-83
2023/01/10 08:46:18;;;;;;;20.00;8.70;;;;;;;;;;106507;1266;22652;-80
2023/01/10 08:49:24;;;;;;;18.70;6.50;;;;;;;;;;106628;1282;22543;-82
2023/01/10 08:52:18;;;;;;;18.00;5.40;;;;;;;;;;106500;1282;23940;-83
2023/01/10 08:54:55;;;;;;;15.80;4.80;;;;;;;;;;106437;1282;22552;-83
2023/01/10 08:57:54;;;;;;;12.60;4.70;;;;;;;;;;106396;1282;25268;-81
2023/01/10 09:00:43;;;;;;;14.20;4.00;;;;;;;;;;106464;1282;22550;-81
2023/01/10 09:03:30;;;;;;;12.10;3.80;;;;;;;;;;106596;1282;22536;-77
2023/01/10 09:06:19;;;;;;;;;;;;;;;;;;;;;
2023/01/10 09:09:10;;;;;;;17.80;6.70;;;;;;;;;;106615;1273;22609;-79
2023/01/10 09:11:56;;;;;;;;;;;;;;;;;;;;;
2023/01/10 09:15:13;;;;;;;;;;;;;;;;;;;;;
2023/01/10 09:18:21;;;;;;;17.40;6.10;;;;;;;;;;107262;1273;23122;-84
2023/01/10 09:21:53;;;;;;;11.80;4.80;;;;;;;;;;107111;1274;25277;-81
2023/01/10 09:24:36;;;;;;;;;;;;;;;;;;;;;
2023/01/10 09:27:44;;;;;;;10.50;4.50;;;;;;;;;;106605;1262;22996;-79
2023/01/10 09:30:22;;;;;;;11.40;4.50;;;;;;;;;;106701;1281;22536;-82
2023/01/10 09:33:09;;;;;;;13.30;4.40;;;;;;;;;;106491;1281;24266;-80
2023/01/10 09:36:12;;;;;;;;;;;;;;;;;;;;;
2023/01/10 09:39:55;;;;;;;11.10;4.10;;;;;;;;;;106448;1265;22683;-84
2023/01/10 09:42:25;;;;;;;13.40;5.00;;;;;;;;;;106502;1282;24274;-79
2023/01/10 09:45:18;;;;;;;10.50;4.90;;;;;;;;;;106466;1282;22539;-82
2023/01/10 09:48:39;;;;;;;12.30;4.70;;;;;;;;;;106524;1262;24603;-80
2023/01/10 09:51:16;;;;;;;10.90;4.00;;;;;;;;;;106513;1265;22563;-75
2023/01/10 09:53:44;;;;;;;11.40;3.50;;;;;;;;;;106379;1286;24214;-80
2023/01/10 09:56:17;;;;;;;8.10;3.20;;;;;;;;;;106362;1286;23102;-77
2023/01/10 09:58:59;;;;;;;8.30;2.60;;;;;;;;;;106043;1268;25597;-79
2023/01/10 10:02:08;;;;;;;13.10;3.70;;;;;;;;;;106409;1280;23134;-80
2023/01/10 10:05:14;;;;;;;;;;;;;;;;;;;;;
2023/01/10 10:08:12;;;;;;;10.50;3.40;;;;;;;;;;106432;1265;25291;-79
2023/01/10 10:11:49;;;;;;;9.90;4.00;;;;;;;;;;106474;1284;24268;-76
2023/01/10 10:15:02;;;;;;;7.80;3.20;;;;;;;;;;106298;1284;22624;-79
2023/01/10 10:17:44;;;;;;;;;;;;;;;;;;;;;
2023/01/10 10:20:30;;;;;;;9.60;3.40;;;;;;;;;;106388;1284;22570;-78
2023/01/10 10:23:29;;;;;;;12.20;3.80;;;;;;;;;;106491;1284;24202;-78
2023/01/10 10:26:04;;;;;;;15.50;4.50;;;;;;;;;;106442;1281;22645;-79
2023/01/10 10:29:00;;;;;;;14.70;4.80;;;;;;;;;;106485;1265;22579;-82
2023/01/10 10:31:45;;;;;;;11.00;3.80;;;;;;;;;;106760;1279;22590;-81
2023/01/10 10:35:28;;;;;;;12.70;3.60;;;;;;;;;;106774;1279;24241;-76
2023/01/10 10:38:29;;;;;;;;;;;;;;;;;;;;;
2023/01/10 10:41:16;;;;;;;11.60;4.20;;;;;;;;;;106895;1279;24177;-78
2023/01/10 10:44:05;;;;;;;;;;;;;;;;;;;;;
2023/01/10 10:47:41;;;;;;;11.50;3.30;;;;;;;;;;107237;1273;23876;-78
2023/01/10 10:50:27;;;;;;;;;;;;;;;;;;;;;
2023/01/10 10:53:18;;;;;;;13.60;3.80;;;;;;;;;;106726;1280;22608;-81
2023/01/10 10:55:56;;;;;;;10.10;3.50;;;;;;;;;;106729;1280;22541;-83
2023/01/10 10:58:42;;;;;;;;;;;;;;;;;;;;;
2023/01/10 11:01:51;;;;;;;10.40;3.10;;;;;;;;;;106800;1280;25237;-81
2023/01/10 11:04:28;;;;;;;15.10;4.60;;;;;;;;;;106347;1286;24205;-83
2023/01/10 11:07:10;;;;;;;14.80;4.30;;;;;;;;;;106110;1285;24379;-81
2023/01/10 11:13:40;;;;;;;15.60;4.50;;;;;;;;;;106306;1286;25285;-79
2023/01/10 11:16:57;;;;;;;11.30;3.60;;;;;;;;;;106432;1286;24280;-81
2023/01/10 11:20:14;;;;;;;;;;;;;;;;;;;;;
2023/01/10 11:23:28;;;;;;;9.90;3.40;;;;;;;;;;106358;1286;22826;-82
2023/01/10 11:26:09;;;;;;;14.60;3.80;;;;;;;;;;106310;1282;23162;-84
2023/01/10 11:29:06;;;;;;;14.00;3.90;;;;;;;;;;106534;1280;22626;-85
2023/01/10 11:32:23;;;;;;;10.40;3.30;;;;;;;;;;106699;1280;25334;-81
2023/01/10 11:35:28;;;;;;;11.90;3.40;;;;;;;;;;106758;1280;22543;-78
2023/01/10 11:38:33;;;;;;;9.10;2.90;;;;;;;;;;106736;1280;25343;-80
2023/01/10 11:41:47;;;;;;;13.50;3.10;;;;;;;;;;106724;1262;22492;-77
2023/01/10 11:44:31;;;;;;;9.50;3.90;;;;;;;;;;107139;1275;22673;-78
2023/01/10 11:47:19;;;;;;;12.60;4.10;;;;;;;;;;106982;1275;22676;-79
2023/01/10 11:50:02;;;;;;;;;;;;;;;;;;;;;
2023/01/10 11:52:44;;;;;;;12.80;4.90;;;;;;;;;;107228;1273;22616;-78
2023/01/10 11:55:32;;;;;;;;;;;;;;;;;;;;;
2023/01/10 11:58:11;;;;;;;14.20;5.60;;;;;;;;;;107194;1273;22525;-82
2023/01/10 12:01:20;;;;;;;17.80;6.30;;;;;;;;;;107223;1257;25465;-80
2023/01/10 12:04:05;;;;;;;10.70;4.50;;;;;;;;;;107218;1274;25398;-78
2023/01/10 12:06:53;;;;;;;12.90;5.30;;;;;;;;;;107182;1256;22541;-84
2023/01/10 12:13:16;;;;;;;13.20;5.90;;;;;;;;;;107262;1273;24357;-80
2023/01/10 12:15:55;;;;;;;;;;;;;;;;;;;;;
2023/01/10 12:18:59;;;;;;;;;;;;;;;;;;;;;
2023/01/10 12:21:43;;;;;;;16.70;6.90;;;;;;;;;;107166;1257;25385;-77
2023/01/10 12:24:42;;;;;;;15.70;6.20;;;;;;;;;;107143;1274;25523;-81
2023/01/10 12:27:51;;;;;;;21.50;7.70;;;;;;;;;;107124;1274;22584;-84
2023/01/10 12:30:51;;;;;;;21.20;7.30;;;;;;;;;;107243;1254;22615;-78
2023/01/10 12:33:25;;;;;;;17.00;6.30;;;;;;;;;;107298;1273;22549;-80
2023/01/10 12:36:37;;;;;;;14.80;5.80;;;;;;;;;;107249;1273;22582;-79
2023/01/10 12:39:29;;;;;;;;;;;;;;;;;;;;;
2023/01/10 12:45:48;;;;;;;;;;;;;;;;;;;;;
2023/01/10 12:48:40;;;;;;;11.50;4.00;;;;;;;;;;106998;1275;22643;-81
2023/01/10 12:51:24;;;;;;;13.70;4.80;;;;;;;;;;107011;1264;24220;-79
2023/01/10 12:54:15;;;;;;;15.90;5.80;;;;;;;;;;107150;1267;22523;-78
2023/01/10 12:56:52;;;;;;;19.50;7.70;;;;;;;;;;107201;1270;23124;-77
2023/01/10 12:59:36;;;;;;;18.20;7.30;;;;;;;;;;107167;1272;24266;-80
2023/01/10 13:02:29;;;;;;;16.50;5.60;;;;;;;;;;106983;1257;22530;-79
2023/01/10 13:05:26;;;;;;;15.60;6.40;;;;;;;;;;107106;1269;24418;-77
2023/01/10 13:08:13;;;;;;;19.60;7.80;;;;;;;;;;107039;1272;22996;-81
2023/01/10 13:11:02;;;;;;;15.50;4.50;;;;;;;;;;106949;1260;22530;-81
2023/01/10 13:13:56;;;;;;;14.30;4.10;;;;;;;;;;107315;1267;22532;-78
2023/01/10 13:17:14;;;;;;;;;;;;;;;;;;;;;
2023/01/10 13:20:42;;;;;;;14.60;5.30;;;;;;;;;;106546;1276;22660;-76
2023/01/10 13:23:28;;;;;;;15.00;5.50;;;;;;;;;;106367;1275;22774;-81
2023/01/10 13:26:47;;;;;;;;;;;;;;;;;;;;;
2023/01/10 13:29:27;;;;;;;16.50;5.60;;;;;;;;;;106349;1279;22560;-82
2023/01/10 13:31:59;;;;;;;14.20;5.50;;;;;;;;;;106565;1265;23910;-79
2023/01/10 13:35:05;;;;;;;;;;;;;;;;;;;;;
2023/01/10 13:38:01;;;;;;;16.30;6.00;;;;;;;;;;106655;1275;25239;-81
2023/01/10 13:40:48;;;;;;;15.30;5.30;;;;;;;;;;106603;1281;25560;-78
2023/01/10 13:44:04;;;;;;;;;;;;;;;;;;;;;
2023/01/10 13:47:00;;;;;;;14.30;4.90;;;;;;;;;;106360;1275;25353;-80
2023/01/10 13:50:05;;;;;;;11.10;3.90;;;;;;;;;;106520;1282;25397;-77
2023/01/10 13:56:49;;;;;;;12.30;3.70;;;;;;;;;;106824;1274;22540;-78
2023/01/10 14:02:35;;;;;;;10.20;3.70;;;;;;;;;;107238;1256;24196;-80
2023/01/10 14:06:09;;;;;;;13.60;4.30;;;;;;;;;;106918;1275;22519;-82
2023/01/10 14:08:57;;;;;;;;;;;;;;;;;;;;;
2023/01/10 14:12:19;;;;;;;16.70;6.90;;;;;;;;;;107426;1271;22527;-78
2023/01/10 14:15:30;;;;;;;13.20;4.30;;;;;;;;;;107175;1264;24240;-80
2023/01/10 14:18:21;;;;;;;;;;;;;;;;;;;;;
2023/01/10 14:21:26;;;;;;;16.50;4.60;;;;;;;;;;107268;1267;22639;-78
2023/01/10 14:24:06;;;;;;;14.50;4.80;;;;;;;;;;107077;1259;22535;-79
2023/01/10 14:26:55;;;;;;;17.00;5.70;;;;;;;;;;106963;1269;22537;-79
2023/01/10 14:29:55;;;;;;;;;;;;;;;;;;;;;
2023/01/10 14:32:53;;;;;;;13.30;4.30;;;;;;;;;;106922;1270;25337;-85
2023/01/10 14:35:52;;;;;;;13.60;4.10;;;;;;;;;;107186;1273;23177;-79
2023/01/10 14:38:52;;;;;;;10.10;3.60;;;;;;;;;;107104;1272;25188;-81
2023/01/10 14:41:43;;;;;;;22.80;8.50;;;;;;;;;;107095;1267;22547;-79
2023/01/10 14:44:44;;;;;;;21.50;8.90;;;;;;;;;;103847;1292;545036;-80
2023/01/10 14:47:55;;;;;;;25.20;11.40;;;;;;;;;;106361;1285;22543;-77
2023/01/10 14:50:43;;;;;;;;;;;;;;;;;;;;;
2023/01/10 14:53:29;;;;;;;32.70;14.90;;;;;;;;;;106141;1286;22554;-78
2023/01/10 14:56:01;;;;;;;91.10;21.80;;;;;;;;;;106081;1273;25317;-77
2023/01/10 14:58:52;;;;;;;34.20;9.40;;;;;;;;;;105411;1278;1657920;-78
2023/01/10 15:01:24;;;;;;;13.30;5.20;;;;;;;;;;106851;1278;22532;-79
2023/01/10 15:04:01;;;;;;;30.40;8.40;;;;;;;;;;106758;1278;25354;-78
2023/01/10 15:06:49;;;;;;;18.90;6.30;;;;;;;;;;106818;1277;22533;-77
2023/01/10 15:09:19;;;;;;;13.90;4.70;;;;;;;;;;106679;1275;25321;-78
2023/01/10 15:11:55;;;;;;;13.90;4.30;;;;;;;;;;106766;1276;23887;-78
2023/01/10 15:14:28;;;;;;;21.60;5.80;;;;;;;;;;106772;1257;24285;-84
2023/01/10 15:17:15;;;;;;;;;;;;;;;;;;;;;
2023/01/10 15:19:49;;;;;;;16.30;5.20;;;;;;;;;;106757;1278;26509;-78
2023/01/10 15:22:26;;;;;;;18.80;6.70;;;;;;;;;;106395;1275;22570;-78
2023/01/10 15:25:27;;;;;;;17.60;6.00;;;;;;;;;;106669;1257;24346;-78
2023/01/10 15:27:55;;;;;;;20.20;7.30;;;;;;;;;;106760;1277;22533;-78
2023/01/10 15:30:30;;;;;;;23.10;8.30;;;;;;;;;;106907;1277;25429;-78
2023/01/10 15:33:03;;;;;;;22.60;8.90;;;;;;;;;;106821;1277;24227;-76
2023/01/10 15:35:42;;;;;;;23.00;6.90;;;;;;;;;;106876;1277;25361;-77
2023/01/10 15:38:16;;;;;;;17.80;5.60;;;;;;;;;;106635;1278;24414;-77
2023/01/10 15:40:54;;;;;;;19.70;5.90;;;;;;;;;;106608;1278;22555;-77
2023/01/10 15:43:39;;;;;;;16.10;5.80;;;;;;;;;;106533;1278;24353;-80
2023/01/10 15:46:16;;;;;;;14.90;5.50;;;;;;;;;;106939;1260;24190;-77
2023/01/10 15:56:03;;;;;;;17.20;6.20;;;;;;;;;;103967;1292;545128;-80
2023/01/10 15:58:55;;;;;;;19.20;7.50;;;;;;;;;;106244;1286;23886;-80
2023/01/10 16:01:43;;;;;;;16.10;6.90;;;;;;;;;;106122;1286;25288;-79
2023/01/10 16:04:24;;;;;;;17.80;7.60;;;;;;;;;;106212;1279;22593;-79
2023/01/10 16:10:10;;;;;;;17.80;6.90;;;;;;;;;;104892;1282;1990081;-79
2023/01/10 16:16:17;;;;;;;;;;;;;;;;;;;;;
2023/01/10 16:19:12;;;;;;;28.90;11.20;;;;;;;;;;106742;1277;25302;-77
2023/01/10 16:22:00;;;;;;;;;;;;;;;;;;;;;
2023/01/10 16:24:57;;;;;;;19.10;7.40;;;;;;;;;;106693;1275;22547;-78
2023/01/10 16:27:44;;;;;;;17.60;5.70;;;;;;;;;;106462;1269;22546;-80
2023/01/10 16:30:39;;;;;;;;;;;;;;;;;;;;;
2023/01/10 16:33:48;;;;;;;;;;;;;;;;;;;;;
2023/01/10 16:39:53;;;;;;;12.30;3.80;;;;;;;;;;106314;1280;22538;-82
2023/01/10 16:46:13;;;;;;;14.10;4.20;;;;;;;;;;106455;1281;22635;-77
2023/01/10 16:48:59;;;;;;;13.10;3.40;;;;;;;;;;106253;1269;22563;-79
2023/01/10 17:02:00;;;;;;;17.60;5.60;;;;;;;;;;103589;1296;544897;-78
2023/01/10 17:04:31;;;;;;;12.60;5.00;;;;;;;;;;109594;1282;22241;-77
2023/01/10 17:07:02;;;;;;;21.00;8.40;;;;;;;;;;109730;1289;22137;-76
2023/01/10 17:09:29;;;;;;;15.30;5.00;;;;;;;;;;109656;1289;22142;-78
2023/01/10 17:12:00;;;;;;;15.10;6.30;;;;;;;;;;109889;1267;22190;-77
2023/01/10 17:14:32;;;;;;;15.90;6.40;;;;;;;;;;108470;1287;1608075;-77
2023/01/10 17:16:59;;;;;;;18.00;6.10;;;;;;;;;;109825;1287;22140;-78
2023/01/10 17:19:33;;;;;;;26.00;10.20;;;;;;;;;;109818;1287;22113;-77
2023/01/10 17:21:59;;;;;;;20.10;7.50;;;;;;;;;;109984;1268;22762;-77
2023/01/10 17:24:28;;;;;;;23.10;8.20;;;;;;;;;;110094;1280;22715;-86
2023/01/10 17:26:55;;;;;;;36.00;13.10;;;;;;;;;;110220;1280;22134;-77
2023/01/10 17:29:22;;;;;;;38.50;15.60;;;;;;;;;;110216;1280;22092;-77
2023/01/10 17:31:57;;;;;;;38.40;15.60;;;;;;;;;;110091;1263;22192;-79
2023/01/10 17:34:24;;;;;;;40.30;16.20;;;;;;;;;;110147;1280;22124;-78
2023/01/10 17:36:51;;;;;;;49.50;21.60;;;;;;;;;;110144;1280;22280;-78
2023/01/10 17:39:21;;;;;;;101.90;35.00;;;;;;;;;;110193;1279;22168;-79
2023/01/10 17:41:48;;;;;;;102.50;32.10;;;;;;;;;;110293;1266;22176;-79
2023/01/10 17:44:15;;;;;;;78.60;26.70;;;;;;;;;;110130;1280;22141;-77
2023/01/10 17:46:42;;;;;;;62.20;22.20;;;;;;;;;;110141;1280;22861;-77
2023/01/10 17:49:09;;;;;;;87.60;24.40;;;;;;;;;;110148;1280;22137;-77
2023/01/10 17:51:36;;;;;;;66.70;21.80;;;;;;;;;;110222;1257;22814;-77
2023/01/10 17:54:05;;;;;;;68.70;20.90;;;;;;;;;;110282;1279;22123;-77
2023/01/10 17:56:36;;;;;;;68.70;21.70;;;;;;;;;;110221;1279;22000;-77
2023/01/10 17:59:06;;;;;;;63.60;21.10;;;;;;;;;;110077;1279;22130;-77
2023/01/10 18:01:36;;;;;;;58.30;21.10;;;;;;;;;;110242;1257;22132;-78
2023/01/10 18:04:17;;;;;;;;;;;;;;;;;;;;;
2023/01/10 18:06:52;;;;;;;43.60;16.80;;;;;;;;;;110062;1280;22144;-77
2023/01/10 18:09:19;;;;;;;39.70;16.50;;;;;;;;;;110054;1280;22190;-77
2023/01/10 18:11:46;;;;;;;46.30;19.50;;;;;;;;;;110091;1257;22160;-77
2023/01/10 18:14:38;;;;;;;45.40;18.40;;;;;;;;;;110129;1280;22153;-76
2023/01/10 18:17:31;;;;;;;38.50;16.10;;;;;;;;;;110116;1280;22143;-78
2023/01/10 18:20:27;;;;;;;33.30;14.70;;;;;;;;;;110101;1281;22234;-77
2023/01/10 18:26:03;;;;;;;30.40;13.50;;;;;;;;;;110091;1281;22232;-77
2023/01/10 18:28:36;;;;;;;29.90;14.20;;;;;;;;;;110115;1280;22473;-78
2023/01/10 18:31:04;;;;;;;30.30;13.00;;;;;;;;;;110135;1273;22465;-77
2023/01/10 18:33:36;;;;;;;29.20;13.40;;;;;;;;;;110303;1266;22205;-77
2023/01/10 18:36:04;;;;;;;41.70;16.40;;;;;;;;;;110113;1280;22415;-78
2023/01/10 18:38:31;;;;;;;43.70;16.90;;;;;;;;;;110003;1281;22232;-77
2023/01/10 18:40:58;;;;;;;46.80;19.20;;;;;;;;;;110003;1281;22787;-79
2023/01/10 18:43:25;;;;;;;52.30;20.90;;;;;;;;;;110287;1257;22146;-77